createdAt,value
2019-03-30T00:00:00.759Z,0.00
2019-03-30T00:01:54.171Z,0.00
2019-03-30T00:02:54.141Z,0.00
2019-03-30T00:04:48.420Z,0.00
2019-03-30T00:05:48.424Z,0.00
2019-03-30T00:07:41.813Z,0.00
2019-03-30T00:08:41.812Z,0.00
2019-03-30T00:10:35.244Z,0.00
2019-03-30T00:11:35.228Z,0.00
2019-03-30T00:13:28.758Z,0.00
2019-03-30T00:14:28.627Z,0.00
2019-03-30T00:16:22.051Z,0.00
2019-03-30T00:17:22.026Z,0.00
2019-03-30T00:19:15.444Z,0.00
2019-03-30T00:20:15.467Z,0.00
2019-03-30T00:22:08.825Z,0.00
2019-03-30T00:23:08.970Z,0.00
2019-03-30T00:25:02.261Z,0.00
2019-03-30T00:26:02.252Z,0.00
2019-03-30T00:27:55.655Z,0.00
2019-03-30T00:28:55.691Z,0.00
2019-03-30T00:30:49.102Z,0.00
2019-03-30T00:31:49.087Z,0.00
2019-03-30T00:33:42.501Z,0.00
2019-03-30T00:34:42.582Z,0.00
2019-03-30T00:36:35.893Z,0.00
2019-03-30T00:37:35.892Z,0.00
2019-03-30T00:39:29.293Z,0.00
2019-03-30T00:40:29.296Z,0.00
2019-03-30T00:42:22.879Z,0.00
2019-03-30T00:43:22.697Z,0.00
2019-03-30T00:45:16.973Z,0.00
2019-03-30T00:46:16.950Z,0.00
2019-03-30T00:48:10.351Z,0.00
2019-03-30T00:49:10.356Z,0.00
2019-03-30T00:51:03.759Z,0.00
2019-03-30T00:52:03.754Z,0.00
2019-03-30T00:53:57.211Z,0.00
2019-03-30T00:54:57.173Z,0.00
2019-03-30T00:56:50.599Z,0.00
2019-03-30T00:57:50.582Z,0.00
2019-03-30T00:59:43.969Z,0.00
2019-03-30T01:00:43.958Z,0.00
2019-03-30T01:02:37.388Z,0.00
2019-03-30T01:03:37.444Z,0.00
2019-03-30T01:05:30.793Z,0.00
2019-03-30T01:06:30.780Z,0.00
2019-03-30T01:08:24.185Z,0.00
2019-03-30T01:09:24.184Z,0.00
2019-03-30T01:11:17.590Z,0.00
2019-03-30T01:12:17.590Z,0.00
2019-03-30T01:14:11.060Z,0.00
2019-03-30T01:15:11.023Z,0.00
2019-03-30T01:17:04.395Z,0.00
2019-03-30T01:18:04.370Z,0.00
2019-03-30T01:20:03.001Z,0.00
2019-03-30T01:20:57.807Z,0.00
2019-03-30T01:22:51.392Z,0.00
2019-03-30T01:23:51.221Z,0.00
2019-03-30T01:25:44.602Z,0.00
2019-03-30T01:26:44.602Z,0.00
2019-03-30T01:28:38.010Z,0.00
2019-03-30T01:29:37.991Z,0.00
2019-03-30T01:31:31.472Z,0.00
2019-03-30T01:32:31.422Z,0.00
2019-03-30T01:34:24.860Z,0.00
2019-03-30T01:35:24.936Z,0.00
2019-03-30T01:37:18.259Z,0.00
2019-03-30T01:38:18.246Z,0.00
2019-03-30T01:40:11.635Z,0.00
2019-03-30T01:41:11.645Z,0.00
2019-03-30T01:43:05.053Z,0.00
2019-03-30T01:44:05.051Z,0.00
2019-03-30T01:45:58.442Z,0.00
2019-03-30T01:46:58.435Z,0.00
2019-03-30T01:48:51.848Z,0.00
2019-03-30T01:49:51.850Z,0.00
2019-03-30T01:51:45.267Z,0.00
2019-03-30T01:52:45.239Z,0.00
2019-03-30T01:54:38.677Z,0.00
2019-03-30T01:55:38.642Z,0.00
2019-03-30T01:57:32.086Z,0.00
2019-03-30T01:58:32.048Z,0.00
2019-03-30T02:00:25.464Z,0.00
2019-03-30T02:01:25.447Z,0.00
2019-03-30T02:03:18.942Z,0.00
2019-03-30T02:04:18.905Z,0.00
2019-03-30T02:06:12.279Z,0.00
2019-03-30T02:07:12.284Z,0.00
2019-03-30T02:09:05.717Z,0.00
2019-03-30T02:10:05.698Z,0.00
2019-03-30T02:11:59.125Z,0.00
2019-03-30T02:12:59.161Z,0.00
2019-03-30T02:14:54.206Z,0.00
2019-03-30T02:15:54.205Z,0.00
2019-03-30T02:17:47.612Z,0.00
2019-03-30T02:18:47.597Z,0.00
2019-03-30T02:20:41.034Z,0.00
2019-03-30T02:21:41.039Z,0.00
2019-03-30T02:23:34.426Z,0.00
2019-03-30T02:24:34.418Z,0.00
2019-03-30T02:26:27.803Z,0.00
2019-03-30T02:27:27.810Z,0.00
2019-03-30T02:29:21.330Z,0.00
2019-03-30T02:30:21.250Z,0.00
2019-03-30T02:32:14.666Z,0.00
2019-03-30T02:33:14.658Z,0.00
2019-03-30T02:35:08.062Z,0.00
2019-03-30T02:36:08.062Z,0.00
2019-03-30T02:38:01.457Z,0.00
2019-03-30T02:39:01.495Z,0.00
2019-03-30T02:40:54.916Z,0.00
2019-03-30T02:41:54.869Z,0.00
2019-03-30T02:43:48.257Z,0.00
2019-03-30T02:44:48.251Z,0.00
2019-03-30T02:46:41.698Z,0.00
2019-03-30T02:47:41.705Z,0.00
2019-03-30T02:49:35.081Z,0.00
2019-03-30T02:50:48.587Z,0.00
2019-03-30T02:52:28.477Z,0.00
2019-03-30T02:53:28.461Z,0.00
2019-03-30T02:55:21.879Z,0.00
2019-03-30T02:56:21.857Z,0.00
2019-03-30T02:58:15.306Z,0.00
2019-03-30T02:59:15.272Z,0.00
2019-03-30T03:01:08.672Z,0.00
2019-03-30T03:02:08.662Z,0.00
2019-03-30T03:04:02.935Z,0.00
2019-03-30T03:05:02.979Z,0.00
2019-03-30T03:06:56.316Z,0.00
2019-03-30T03:07:56.315Z,0.00
2019-03-30T03:09:49.742Z,0.00
2019-03-30T03:10:49.706Z,0.00
2019-03-30T03:12:43.092Z,0.00
2019-03-30T03:13:43.095Z,0.00
2019-03-30T03:15:36.505Z,0.00
2019-03-30T03:16:36.610Z,0.00
2019-03-30T03:18:29.904Z,0.00
2019-03-30T03:19:29.914Z,0.00
2019-03-30T03:21:23.362Z,0.00
2019-03-30T03:22:23.306Z,0.00
2019-03-30T03:24:16.804Z,0.00
2019-03-30T03:25:16.708Z,0.00
2019-03-30T03:27:10.964Z,0.00
2019-03-30T03:28:10.987Z,0.00
2019-03-30T03:30:04.369Z,0.00
2019-03-30T03:31:04.383Z,0.00
2019-03-30T03:32:57.760Z,0.00
2019-03-30T03:33:57.842Z,0.00
2019-03-30T03:35:51.297Z,0.00
2019-03-30T03:36:51.157Z,0.00
2019-03-30T03:38:44.535Z,0.00
2019-03-30T03:39:44.537Z,0.00
2019-03-30T03:41:38.785Z,0.00
2019-03-30T03:42:38.795Z,0.00
2019-03-30T03:44:32.170Z,0.00
2019-03-30T03:45:32.164Z,0.00
2019-03-30T03:47:25.603Z,0.00
2019-03-30T03:48:25.597Z,0.00
2019-03-30T03:50:18.983Z,0.00
2019-03-30T03:51:26.203Z,0.00
2019-03-30T03:53:12.399Z,0.00
2019-03-30T03:54:12.394Z,0.00
2019-03-30T03:56:05.806Z,0.00
2019-03-30T03:57:05.792Z,0.00
2019-03-30T03:58:59.204Z,0.00
2019-03-30T03:59:59.188Z,0.00
2019-03-30T04:01:52.672Z,0.00
2019-03-30T04:02:52.630Z,0.00
2019-03-30T04:05:09.584Z,0.00
2019-03-30T04:12:59.151Z,0.00
2019-03-30T04:13:59.127Z,0.00
2019-03-30T04:15:52.536Z,0.00
2019-03-30T04:16:52.547Z,0.00
2019-03-30T04:18:48.292Z,0.00
2019-03-30T04:19:45.944Z,0.00
2019-03-30T04:21:44.158Z,0.00
2019-03-30T04:22:39.324Z,0.00
2019-03-30T04:24:32.742Z,0.00
2019-03-30T04:25:32.791Z,0.00
2019-03-30T04:27:26.182Z,0.00
2019-03-30T04:28:26.135Z,0.00
2019-03-30T04:30:19.528Z,0.00
2019-03-30T04:31:20.008Z,0.00
2019-03-30T04:33:12.949Z,0.00
2019-03-30T04:34:12.963Z,0.00
2019-03-30T04:36:06.768Z,4.00
2019-03-30T04:37:06.335Z,0.00
2019-03-30T04:38:59.741Z,4.00
2019-03-30T04:39:59.729Z,4.00
2019-03-30T04:41:53.144Z,8.00
2019-03-30T04:42:53.153Z,8.00
2019-03-30T04:44:47.526Z,12.00
2019-03-30T04:45:47.382Z,12.00
2019-03-30T04:47:40.815Z,24.00
2019-03-30T04:48:40.787Z,28.00
2019-03-30T04:50:35.014Z,36.00
2019-03-30T04:51:35.033Z,44.00
2019-03-30T04:53:28.468Z,56.00
2019-03-30T04:54:28.440Z,68.00
2019-03-30T04:56:22.680Z,88.00
2019-03-30T04:57:22.698Z,100.00
2019-03-30T04:59:16.944Z,124.00
2019-03-30T05:00:17.026Z,144.00
2019-03-30T05:02:10.335Z,176.00
2019-03-30T05:03:10.336Z,200.00
2019-03-30T05:05:03.762Z,240.00
2019-03-30T05:06:03.742Z,264.00
2019-03-30T05:07:57.149Z,316.00
2019-03-30T05:08:57.170Z,344.00
2019-03-30T05:10:50.529Z,400.00
2019-03-30T05:11:50.538Z,432.00
2019-03-30T05:13:43.945Z,496.00
2019-03-30T05:14:43.935Z,528.00
2019-03-30T05:16:37.327Z,600.00
2019-03-30T05:17:47.013Z,644.00
2019-03-30T05:19:30.839Z,744.00
2019-03-30T05:20:30.735Z,788.00
2019-03-30T05:22:25.000Z,844.00
2019-03-30T05:23:24.981Z,880.00
2019-03-30T05:25:18.474Z,944.00
2019-03-30T05:26:18.379Z,976.00
2019-03-30T05:28:11.790Z,1060.00
2019-03-30T05:30:46.322Z,1192.00
2019-03-30T05:32:18.555Z,1324.00
2019-03-30T05:33:18.572Z,1384.00
2019-03-30T05:37:47.357Z,1788.00
2019-03-30T06:04:24.171Z,4356.00
2019-03-30T06:05:24.166Z,4500.00
2019-03-30T06:07:17.548Z,4748.00
2019-03-30T06:08:17.682Z,4824.00
2019-03-30T06:10:11.034Z,5052.00
2019-03-30T06:11:10.983Z,5220.00
2019-03-30T06:13:04.404Z,5496.00
2019-03-30T06:14:04.437Z,5700.00
2019-03-30T06:15:57.822Z,5976.00
2019-03-30T06:16:57.812Z,6104.00
2019-03-30T06:18:51.243Z,6132.00
2019-03-30T06:19:51.235Z,5544.00
2019-03-30T06:21:44.641Z,4992.00
2019-03-30T06:22:44.728Z,5072.00
2019-03-30T06:24:38.033Z,5404.00
2019-03-30T06:25:38.047Z,6996.00
2019-03-30T06:27:31.590Z,8700.00
2019-03-30T06:28:31.460Z,9252.00
2019-03-30T06:30:24.896Z,11016.00
2019-03-30T06:31:24.873Z,11728.00
2019-03-30T06:33:19.166Z,11380.00
2019-03-30T06:34:19.147Z,11504.00
2019-03-30T06:36:13.416Z,11984.00
2019-03-30T06:37:13.405Z,11852.00
2019-03-30T06:39:06.796Z,12724.00
2019-03-30T06:40:06.814Z,13496.00
2019-03-30T06:42:00.241Z,11932.00
2019-03-30T06:43:00.281Z,9988.00
2019-03-30T06:44:53.646Z,14388.00
2019-03-30T06:45:53.658Z,15456.00
2019-03-30T06:47:47.130Z,10876.00
2019-03-30T06:48:47.259Z,11120.00
2019-03-30T06:50:40.597Z,10996.00
2019-03-30T06:51:40.499Z,13716.00
2019-03-30T06:53:33.966Z,13552.00
2019-03-30T06:54:33.947Z,14612.00
2019-03-30T06:56:27.373Z,14296.00
2019-03-30T06:57:27.369Z,12520.00
2019-03-30T06:59:20.794Z,14132.00
2019-03-30T07:00:20.774Z,15520.00
2019-03-30T07:02:14.199Z,15680.00
2019-03-30T07:03:14.189Z,15044.00
2019-03-30T07:05:07.622Z,16320.00
2019-03-30T07:06:07.617Z,16320.00
2019-03-30T07:08:01.098Z,14164.00
2019-03-30T07:09:01.029Z,13868.00
2019-03-30T07:10:54.437Z,12864.00
2019-03-30T07:11:54.450Z,14876.00
2019-03-30T07:13:47.862Z,16448.00
2019-03-30T07:14:47.867Z,17696.00
2019-03-30T07:16:41.434Z,18176.00
2019-03-30T07:17:41.326Z,18048.00
2019-03-30T07:19:34.711Z,18560.00
2019-03-30T07:20:34.724Z,19232.00
2019-03-30T07:22:28.169Z,21312.00
2019-03-30T07:23:28.148Z,21376.00
2019-03-30T07:25:21.574Z,20000.00
2019-03-30T07:26:21.571Z,19648.00
2019-03-30T07:28:15.004Z,20480.00
2019-03-30T07:29:14.994Z,23232.00
2019-03-30T07:31:09.276Z,24256.00
2019-03-30T07:32:09.322Z,22912.00
2019-03-30T07:34:02.715Z,23488.00
2019-03-30T07:35:02.920Z,22464.00
2019-03-30T07:36:56.112Z,28192.00
2019-03-30T07:37:56.182Z,32384.00
2019-03-30T07:39:49.670Z,28384.00
2019-03-30T07:40:49.553Z,27936.00
2019-03-30T07:42:42.980Z,24064.00
2019-03-30T07:43:42.982Z,26112.00
2019-03-30T07:45:36.410Z,38368.00
2019-03-30T07:46:36.420Z,36064.00
2019-03-30T07:48:29.847Z,38464.00
2019-03-30T07:49:29.853Z,31232.00
2019-03-30T07:51:23.272Z,18560.00
2019-03-30T07:52:23.281Z,18208.00
2019-03-30T07:54:16.732Z,17600.00
2019-03-30T07:55:16.760Z,17568.00
2019-03-30T07:57:16.928Z,17472.00
2019-03-30T07:58:10.312Z,17408.00
2019-03-30T08:00:03.578Z,17472.00
2019-03-30T08:01:03.586Z,17472.00
2019-03-30T08:02:56.991Z,17600.00
2019-03-30T08:03:57.099Z,17536.00
2019-03-30T08:05:50.451Z,17472.00
2019-03-30T08:06:50.458Z,17536.00
2019-03-30T08:08:44.810Z,17792.00
2019-03-30T08:09:44.734Z,17792.00
2019-03-30T08:11:39.022Z,17088.00
2019-03-30T08:12:39.045Z,17728.00
2019-03-30T08:14:32.506Z,18272.00
2019-03-30T08:15:32.496Z,17760.00
2019-03-30T08:17:25.923Z,19424.00
2019-03-30T08:18:26.006Z,19840.00
2019-03-30T08:20:19.385Z,20864.00
2019-03-30T08:21:19.395Z,23488.00
2019-03-30T08:23:12.813Z,34496.00
2019-03-30T08:24:12.833Z,36320.00
2019-03-30T08:26:06.262Z,35776.00
2019-03-30T08:27:06.274Z,35712.00
2019-03-30T08:28:59.676Z,38688.00
2019-03-30T08:29:59.709Z,41792.00
2019-03-30T08:31:53.135Z,45760.00
2019-03-30T08:32:53.213Z,47296.00
2019-03-30T08:34:46.605Z,42784.00
2019-03-30T08:35:46.616Z,37920.00
2019-03-30T08:37:40.022Z,36512.00
2019-03-30T08:38:40.041Z,40192.00
2019-03-30T08:40:33.508Z,14764.00
2019-03-30T08:41:33.531Z,48736.00
2019-03-30T08:43:27.016Z,51648.00
2019-03-30T08:44:26.941Z,54016.00
2019-03-30T08:46:20.381Z,53408.00
2019-03-30T08:47:20.397Z,53888.00
2019-03-30T08:49:14.693Z,52320.00
2019-03-30T08:50:14.701Z,50464.00
2019-03-30T08:52:08.157Z,49696.00
2019-03-30T08:53:08.155Z,53088.00
2019-03-30T08:55:01.603Z,60608.00
2019-03-30T08:56:01.639Z,61216.00
2019-03-30T08:57:55.107Z,63808.00
2019-03-30T08:58:55.090Z,67072.00
2019-03-30T09:00:49.499Z,66560.00
2019-03-30T09:01:49.375Z,66208.00
2019-03-30T09:03:42.797Z,67200.00
2019-03-30T09:04:42.830Z,68448.00
2019-03-30T09:06:36.282Z,70816.00
2019-03-30T09:07:36.282Z,68384.00
2019-03-30T09:09:29.717Z,72032.00
2019-03-30T09:10:29.761Z,75552.00
2019-03-30T09:12:23.191Z,80000.00
2019-03-30T09:13:23.200Z,77504.00
2019-03-30T09:15:16.648Z,75936.00
2019-03-30T09:16:16.651Z,76960.00
2019-03-30T09:18:10.133Z,79232.00
2019-03-30T09:19:10.118Z,69344.00
2019-03-30T09:21:03.567Z,55296.00
2019-03-30T09:22:03.571Z,57248.00
2019-03-30T09:24:09.007Z,59872.00
2019-03-30T09:24:57.040Z,66720.00
2019-03-30T09:26:50.493Z,74912.00
2019-03-30T09:27:50.490Z,77440.00
2019-03-30T09:29:43.919Z,82912.00
2019-03-30T09:30:43.949Z,80768.00
2019-03-30T09:32:37.449Z,74496.00
2019-03-30T09:33:37.434Z,75456.00
2019-03-30T09:35:30.879Z,80416.00
2019-03-30T09:36:30.915Z,80000.00
2019-03-30T09:38:24.312Z,75488.00
2019-03-30T09:39:24.335Z,75008.00
2019-03-30T09:41:17.790Z,66880.00
2019-03-30T09:42:17.809Z,71808.00
2019-03-30T09:44:11.380Z,74400.00
2019-03-30T09:45:11.424Z,70400.00
2019-03-30T09:47:04.880Z,72608.00
2019-03-30T09:48:04.871Z,75424.00
2019-03-30T09:49:58.331Z,74112.00
2019-03-30T09:50:58.349Z,73216.00
2019-03-30T09:52:51.785Z,73024.00
2019-03-30T09:53:51.780Z,71488.00
2019-03-30T09:55:45.229Z,63840.00
2019-03-30T09:56:45.245Z,41312.00
2019-03-30T09:58:38.708Z,21184.00
2019-03-30T09:59:38.713Z,20640.00
2019-03-30T10:01:32.134Z,19904.00
2019-03-30T10:02:32.158Z,19584.00
2019-03-30T10:04:26.457Z,19712.00
2019-03-30T10:05:26.466Z,19776.00
2019-03-30T10:07:19.919Z,20224.00
2019-03-30T10:08:19.914Z,20640.00
2019-03-30T10:10:13.380Z,20608.00
2019-03-30T10:11:13.368Z,20672.00
2019-03-30T10:13:06.828Z,20672.00
2019-03-30T10:14:06.832Z,20768.00
2019-03-30T10:16:01.096Z,20576.00
2019-03-30T10:17:01.133Z,20992.00
2019-03-30T10:18:54.571Z,21056.00
2019-03-30T10:20:04.085Z,21440.00
2019-03-30T10:21:48.881Z,21760.00
2019-03-30T10:22:48.888Z,22016.00
2019-03-30T10:24:42.369Z,22016.00
2019-03-30T10:25:42.348Z,22208.00
2019-03-30T10:27:35.809Z,22528.00
2019-03-30T10:28:35.797Z,22816.00
2019-03-30T10:30:29.250Z,23488.00
2019-03-30T10:31:29.260Z,23712.00
2019-03-30T10:33:22.708Z,22720.00
2019-03-30T10:34:22.695Z,24000.00
2019-03-30T10:36:16.143Z,23264.00
2019-03-30T10:37:16.146Z,24096.00
2019-03-30T10:39:09.666Z,24672.00
2019-03-30T10:40:09.784Z,26528.00
2019-03-30T10:42:03.096Z,62624.00
2019-03-30T10:43:03.140Z,70688.00
2019-03-30T10:44:57.419Z,78304.00
2019-03-30T10:45:57.429Z,74464.00
2019-03-30T10:47:50.839Z,78464.00
2019-03-30T10:48:50.882Z,76128.00
2019-03-30T10:50:44.316Z,76128.00
2019-03-30T10:51:44.324Z,74912.00
2019-03-30T10:53:37.779Z,81952.00
2019-03-30T10:54:51.716Z,64512.00
2019-03-30T10:56:31.211Z,48928.00
2019-03-30T10:57:31.265Z,89568.00
2019-03-30T10:59:24.713Z,88640.00
2019-03-30T11:00:24.727Z,91872.00
2019-03-30T11:02:19.158Z,90048.00
2019-03-30T11:03:19.037Z,84416.00
2019-03-30T11:05:12.482Z,68640.00
2019-03-30T11:06:12.522Z,58432.00
2019-03-30T11:08:05.966Z,78944.00
2019-03-30T11:09:05.960Z,89664.00
2019-03-30T11:10:59.415Z,93792.00
2019-03-30T11:11:59.428Z,88384.00
2019-03-30T11:13:52.902Z,80736.00
2019-03-30T11:14:52.994Z,72992.00
2019-03-30T11:16:46.365Z,67680.00
2019-03-30T11:17:46.369Z,66432.00
2019-03-30T11:19:39.829Z,60064.00
2019-03-30T11:20:39.822Z,62944.00
2019-03-30T11:22:33.264Z,70912.00
2019-03-30T11:23:33.291Z,73824.00
2019-03-30T11:25:26.751Z,72832.00
2019-03-30T11:26:26.830Z,67296.00
2019-03-30T11:28:20.184Z,63008.00
2019-03-30T11:29:20.213Z,60544.00
2019-03-30T11:31:13.668Z,64960.00
2019-03-30T11:32:13.740Z,66720.00
2019-03-30T11:34:07.330Z,58112.00
2019-03-30T11:37:00.932Z,67456.00
2019-03-30T11:48:37.950Z,86464.00
2019-03-30T11:49:37.689Z,84896.00
2019-03-30T11:51:31.156Z,89760.00
2019-03-30T11:52:31.163Z,87712.00
2019-03-30T11:54:24.586Z,92544.00
2019-03-30T11:55:24.645Z,88256.00
2019-03-30T11:57:18.079Z,94464.00
2019-03-30T11:58:18.090Z,93536.00
2019-03-30T12:00:11.544Z,94176.00
2019-03-30T12:01:11.646Z,94368.00
2019-03-30T12:03:05.032Z,95872.00
2019-03-30T12:04:05.063Z,96032.00
2019-03-30T12:05:58.508Z,97888.00
2019-03-30T12:06:58.510Z,98400.00
2019-03-30T12:08:51.939Z,97440.00
2019-03-30T12:09:52.054Z,98176.00
2019-03-30T12:11:45.451Z,95616.00
2019-03-30T12:12:45.462Z,97216.00
2019-03-30T12:14:38.898Z,96032.00
2019-03-30T12:15:38.936Z,96512.00
2019-03-30T12:17:33.235Z,103968.00
2019-03-30T12:18:33.271Z,96256.00
2019-03-30T12:20:26.712Z,94496.00
2019-03-30T12:21:26.752Z,92576.00
2019-03-30T12:23:20.177Z,76384.00
2019-03-30T12:24:20.194Z,81472.00
2019-03-30T12:26:13.724Z,86336.00
2019-03-30T12:27:13.691Z,92800.00
2019-03-30T12:29:07.300Z,94880.00
2019-03-30T12:30:07.143Z,93152.00
2019-03-30T12:32:00.589Z,89920.00
2019-03-30T12:33:00.626Z,91968.00
2019-03-30T12:34:54.104Z,90176.00
2019-03-30T12:35:54.088Z,92384.00
2019-03-30T12:37:47.549Z,94336.00
2019-03-30T12:38:47.570Z,95360.00
2019-03-30T12:40:41.157Z,95616.00
2019-03-30T12:41:41.189Z,92448.00
2019-03-30T12:43:34.635Z,91072.00
2019-03-30T12:44:34.652Z,87424.00
2019-03-30T12:46:28.104Z,85888.00
2019-03-30T12:47:28.123Z,92128.00
2019-03-30T12:49:21.597Z,94112.00
2019-03-30T12:50:21.597Z,94208.00
2019-03-30T12:52:15.155Z,94336.00
2019-03-30T12:53:15.095Z,91168.00
2019-03-30T12:55:08.671Z,82304.00
2019-03-30T12:56:09.083Z,75776.00
2019-03-30T12:58:02.170Z,80224.00
2019-03-30T12:59:02.155Z,77792.00
2019-03-30T13:00:55.604Z,90336.00
2019-03-30T13:01:55.635Z,85664.00
2019-03-30T13:03:49.169Z,88864.00
2019-03-30T13:04:49.169Z,88704.00
2019-03-30T13:06:42.615Z,85088.00
2019-03-30T13:07:42.651Z,87744.00
2019-03-30T13:09:36.105Z,90976.00
2019-03-30T13:10:36.134Z,89664.00
2019-03-30T13:12:29.641Z,88000.00
2019-03-30T13:13:29.657Z,86528.00
2019-03-30T13:15:23.149Z,86848.00
2019-03-30T13:16:26.252Z,87648.00
2019-03-30T13:18:16.606Z,88448.00
2019-03-30T13:19:16.612Z,91264.00
2019-03-30T13:21:10.090Z,93792.00
2019-03-30T13:22:10.103Z,92160.00
2019-03-30T13:24:03.569Z,87136.00
2019-03-30T13:25:03.571Z,85216.00
2019-03-30T13:26:57.024Z,83712.00
2019-03-30T13:27:57.058Z,82720.00
2019-03-30T13:29:50.525Z,83264.00
2019-03-30T13:30:50.528Z,81792.00
2019-03-30T13:32:43.971Z,86944.00
2019-03-30T13:33:44.027Z,86816.00
2019-03-30T13:35:37.594Z,85600.00
2019-03-30T13:36:37.491Z,85504.00
2019-03-30T13:38:30.981Z,77152.00
2019-03-30T13:39:30.960Z,80512.00
2019-03-30T13:41:24.409Z,79520.00
2019-03-30T13:42:24.471Z,80608.00
2019-03-30T13:44:17.940Z,80448.00
2019-03-30T13:45:17.936Z,78016.00
2019-03-30T13:47:11.371Z,77376.00
2019-03-30T13:48:11.410Z,74080.00
2019-03-30T13:50:04.915Z,69888.00
2019-03-30T13:51:05.000Z,69984.00
2019-03-30T13:52:58.914Z,76544.00
2019-03-30T13:53:58.372Z,74720.00
2019-03-30T13:55:51.803Z,75776.00
2019-03-30T13:56:51.865Z,76160.00
2019-03-30T13:58:45.251Z,75776.00
2019-03-30T13:59:45.291Z,77280.00
2019-03-30T14:01:38.842Z,75776.00
2019-03-30T14:02:38.761Z,76800.00
2019-03-30T14:04:32.242Z,76608.00
2019-03-30T14:05:32.223Z,77024.00
2019-03-30T14:07:25.670Z,78240.00
2019-03-30T14:08:25.703Z,79200.00
2019-03-30T14:10:19.144Z,77216.00
2019-03-30T14:11:19.157Z,76288.00
2019-03-30T14:13:12.593Z,74464.00
2019-03-30T14:14:12.620Z,72512.00
2019-03-30T14:16:06.077Z,73760.00
2019-03-30T14:17:06.124Z,73888.00
2019-03-30T14:19:20.561Z,73376.00
2019-03-30T14:20:52.992Z,68640.00
2019-03-30T14:21:52.990Z,67584.00
2019-03-30T14:23:46.448Z,65472.00
2019-03-30T14:24:46.465Z,63456.00
2019-03-30T14:26:39.946Z,61280.00
2019-03-30T14:27:39.950Z,59168.00
2019-03-30T14:29:33.384Z,57472.00
2019-03-30T14:30:33.415Z,59904.00
2019-03-30T14:32:27.449Z,63520.00
2019-03-30T14:33:26.896Z,63232.00
2019-03-30T14:35:20.329Z,59040.00
2019-03-30T14:36:20.370Z,59040.00
2019-03-30T14:38:13.846Z,57632.00
2019-03-30T14:39:13.833Z,58272.00
2019-03-30T14:41:07.304Z,59008.00
2019-03-30T14:42:07.312Z,60864.00
2019-03-30T14:44:00.778Z,62816.00
2019-03-30T14:45:00.790Z,65216.00
2019-03-30T14:46:54.225Z,62208.00
2019-03-30T14:47:57.643Z,59072.00
2019-03-30T14:49:47.680Z,56864.00
2019-03-30T14:50:47.710Z,56256.00
2019-03-30T14:52:41.193Z,57888.00
2019-03-30T14:53:41.180Z,60256.00
2019-03-30T14:55:34.604Z,60448.00
2019-03-30T14:56:44.994Z,59552.00
2019-03-30T14:58:28.098Z,60000.00
2019-03-30T14:59:28.106Z,59808.00
2019-03-30T15:01:21.548Z,56160.00
2019-03-30T15:02:21.563Z,54752.00
2019-03-30T15:04:15.024Z,54304.00
2019-03-30T15:05:15.067Z,54464.00
2019-03-30T15:07:08.483Z,51360.00
2019-03-30T15:08:08.506Z,50464.00
2019-03-30T15:10:01.965Z,49888.00
2019-03-30T15:11:01.984Z,49376.00
2019-03-30T15:12:55.507Z,49024.00
2019-03-30T15:13:55.432Z,48928.00
2019-03-30T15:15:48.884Z,49600.00
2019-03-30T15:16:48.916Z,48448.00
2019-03-30T15:18:43.190Z,47328.00
2019-03-30T15:19:43.208Z,47040.00
2019-03-30T15:21:37.494Z,46784.00
2019-03-30T15:22:37.649Z,45600.00
2019-03-30T15:24:30.971Z,44480.00
2019-03-30T15:25:30.988Z,42912.00
2019-03-30T15:27:24.408Z,40384.00
2019-03-30T15:28:24.435Z,40256.00
2019-03-30T15:30:17.887Z,39520.00
2019-03-30T15:31:17.902Z,38784.00
2019-03-30T15:33:11.359Z,36000.00
2019-03-30T15:34:11.364Z,34720.00
2019-03-30T15:36:05.652Z,36128.00
2019-03-30T15:37:05.658Z,36192.00
2019-03-30T15:38:59.147Z,32288.00
2019-03-30T15:39:59.149Z,22848.00
2019-03-30T15:41:52.556Z,9856.00
2019-03-30T15:42:52.596Z,9632.00
2019-03-30T15:44:46.152Z,9320.00
2019-03-30T15:45:46.115Z,9168.00
2019-03-30T15:47:39.580Z,8876.00
2019-03-30T15:48:39.571Z,8740.00
2019-03-30T15:50:33.015Z,8464.00
2019-03-30T15:51:33.034Z,8336.00
2019-03-30T15:53:26.482Z,8112.00
2019-03-30T15:54:26.481Z,7992.00
2019-03-30T15:56:19.917Z,7724.00
2019-03-30T15:57:19.940Z,7676.00
2019-03-30T15:59:13.434Z,7488.00
2019-03-30T16:00:13.397Z,7344.00
2019-03-30T16:02:06.832Z,7100.00
2019-03-30T16:03:06.845Z,6968.00
2019-03-30T16:05:00.409Z,6756.00
2019-03-30T16:06:00.298Z,6624.00
2019-03-30T16:07:53.722Z,6424.00
2019-03-30T16:08:53.752Z,6344.00
2019-03-30T16:10:47.185Z,6188.00
2019-03-30T16:11:47.194Z,6136.00
2019-03-30T16:13:40.629Z,6020.00
2019-03-30T16:14:40.661Z,5936.00
2019-03-30T16:16:34.099Z,5804.00
2019-03-30T16:17:34.086Z,5736.00
2019-03-30T16:19:27.532Z,5616.00
2019-03-30T16:20:27.540Z,5564.00
2019-03-30T16:22:20.999Z,5444.00
2019-03-30T16:23:20.986Z,5384.00
2019-03-30T16:25:14.429Z,5264.00
2019-03-30T16:26:14.424Z,5124.00
2019-03-30T16:28:07.845Z,5044.00
2019-03-30T16:29:07.855Z,4968.00
2019-03-30T16:31:01.274Z,4836.00
2019-03-30T16:32:01.325Z,4784.00
2019-03-30T16:33:55.740Z,4660.00
2019-03-30T16:34:55.570Z,4596.00
2019-03-30T16:36:49.012Z,4468.00
2019-03-30T16:37:49.025Z,4420.00
2019-03-30T16:39:42.480Z,4304.00
2019-03-30T16:40:42.472Z,4232.00
2019-03-30T16:42:36.348Z,4116.00
2019-03-30T16:43:35.898Z,4036.00
2019-03-30T16:45:30.200Z,3912.00
2019-03-30T16:46:30.178Z,3848.00
2019-03-30T16:48:24.509Z,3720.00
2019-03-30T16:49:24.502Z,3632.00
2019-03-30T16:51:18.017Z,3512.00
2019-03-30T16:52:17.964Z,3436.00
2019-03-30T16:54:11.358Z,3312.00
2019-03-30T16:55:11.385Z,3244.00
2019-03-30T16:57:04.814Z,3116.00
2019-03-30T16:58:04.808Z,3044.00
2019-03-30T16:59:58.212Z,2920.00
2019-03-30T17:00:58.258Z,2856.00
2019-03-30T17:02:51.673Z,2712.00
2019-03-30T17:03:51.680Z,2648.00
2019-03-30T17:05:45.082Z,2508.00
2019-03-30T17:06:45.091Z,2432.00
2019-03-30T17:08:38.529Z,2292.00
2019-03-30T17:09:38.526Z,2212.00
2019-03-30T17:11:31.940Z,2080.00
2019-03-30T17:12:31.954Z,2004.00
2019-03-30T17:14:25.353Z,1868.00
2019-03-30T17:15:25.407Z,1792.00
2019-03-30T17:17:18.855Z,1664.00
2019-03-30T17:18:18.810Z,1600.00
2019-03-30T17:20:12.209Z,1476.00
2019-03-30T17:21:12.225Z,1412.00
2019-03-30T17:23:05.702Z,1304.00
2019-03-30T17:24:05.661Z,1240.00
2019-03-30T17:25:59.059Z,1132.00
2019-03-30T17:26:59.074Z,1076.00
2019-03-30T17:28:52.533Z,976.00
2019-03-30T17:29:52.517Z,920.00
2019-03-30T17:31:45.949Z,828.00
2019-03-30T17:32:46.006Z,780.00
2019-03-30T17:34:39.363Z,692.00
2019-03-30T17:35:39.367Z,648.00
2019-03-30T17:37:32.874Z,568.00
2019-03-30T17:44:31.227Z,312.00
2019-03-30T17:45:31.220Z,284.00
2019-03-30T17:47:24.655Z,232.00
2019-03-30T17:48:24.636Z,208.00
2019-03-30T17:50:18.044Z,172.00
2019-03-30T17:51:18.072Z,152.00
2019-03-30T17:53:11.528Z,120.00
2019-03-30T17:54:11.486Z,104.00
2019-03-30T17:56:04.900Z,80.00
2019-03-30T17:57:04.910Z,68.00
2019-03-30T17:58:58.351Z,52.00
2019-03-30T17:59:58.358Z,44.00
2019-03-30T18:01:51.783Z,32.00
2019-03-30T18:02:51.779Z,28.00
2019-03-30T18:04:46.054Z,20.00
2019-03-30T18:05:46.041Z,16.00
2019-03-30T18:07:39.470Z,12.00
2019-03-30T18:08:39.482Z,8.00
2019-03-30T18:10:32.903Z,8.00
2019-03-30T18:11:32.918Z,8.00
2019-03-30T18:13:26.357Z,4.00
2019-03-30T18:14:26.359Z,4.00
2019-03-30T18:16:22.437Z,4.00
2019-03-30T18:17:20.625Z,4.00
2019-03-30T18:19:14.052Z,0.00
2019-03-30T18:20:14.059Z,0.00
2019-03-30T18:22:07.444Z,0.00
2019-03-30T18:23:07.495Z,0.00
2019-03-30T18:25:00.933Z,0.00
2019-03-30T18:26:00.881Z,0.00
2019-03-30T18:27:54.281Z,0.00
2019-03-30T18:28:54.305Z,0.00
2019-03-30T18:30:48.573Z,0.00
2019-03-30T18:31:48.569Z,0.00
2019-03-30T18:33:42.031Z,0.00
2019-03-30T18:34:41.985Z,0.00
2019-03-30T18:36:35.412Z,0.00
2019-03-30T18:37:35.441Z,0.00